Time;durP1;ratioP1;P1;durP2;ratioP2;P2;SDS_P1;SDS_P2;PMS_P1;PMS_P2;Temp;Humidity;BMP_temperature;BMP_pressure;BME280_temperature;BME280_humidity;BME280_pressure;Samples;Min_cycle;Max_cycle;Signal;HPM_P1;HPM_P2
2023/10/16 00:00:44;;;;;;;3.00;1.02;;;;;;;;;;5054301;28;20043;-73
2023/10/16 00:03:17;;;;;;;2.75;1.00;;;;;;;;;;5054130;28;20029;-73
2023/10/16 00:05:51;;;;;;;2.55;0.90;;;;;;;;;;5054524;28;20033;-74
2023/10/16 00:08:18;;;;;;;3.00;0.80;;;;;;;;;;5053888;28;20048;-73
2023/10/16 00:10:57;;;;;;;1.98;0.85;;;;;;;;;;5054318;28;20029;-74
2023/10/16 00:13:27;;;;;;;2.20;1.00;;;;;;;;;;5053848;28;20033;-73
2023/10/16 00:15:54;;;;;;;3.38;0.98;;;;;;;;;;5052858;28;20025;-74
2023/10/16 00:18:24;;;;;;;2.97;0.90;;;;;;;;;;5053949;28;20097;-73
2023/10/16 00:20:51;;;;;;;3.33;0.95;;;;;;;;;;5053702;28;20496;-73
2023/10/16 00:23:18;;;;;;;5.10;1.15;;;;;;;;;;5053225;28;20025;-74
2023/10/16 00:25:46;;;;;;;3.47;1.08;;;;;;;;;;5053590;28;20385;-74
2023/10/16 00:28:15;;;;;;;1.98;0.95;;;;;;;;;;5053583;28;20032;-73
2023/10/16 00:30:42;;;;;;;2.25;1.02;;;;;;;;;;5053576;28;20025;-74
2023/10/16 00:33:11;;;;;;;4.35;0.90;;;;;;;;;;5053529;28;20029;-74
2023/10/16 00:35:37;;;;;;;3.88;0.82;;;;;;;;;;5053411;28;20032;-74
2023/10/16 00:38:04;;;;;;;3.97;0.95;;;;;;;;;;5053146;28;20377;-74
2023/10/16 00:40:35;;;;;;;2.05;0.80;;;;;;;;;;5053711;28;20017;-73
2023/10/16 00:43:03;;;;;;;;;;;;;;;;;;5053706;28;20486;-73
2023/10/16 00:45:31;;;;;;;2.58;1.05;;;;;;;;;;5052085;28;20365;-73
2023/10/16 00:47:58;;;;;;;3.17;0.90;;;;;;;;;;5053486;28;20039;-73
2023/10/16 00:50:24;;;;;;;2.10;1.13;;;;;;;;;;5053234;28;20029;-73
2023/10/16 00:52:51;;;;;;;2.08;0.88;;;;;;;;;;5052984;28;20035;-74
2023/10/16 00:55:20;;;;;;;2.33;0.95;;;;;;;;;;5053166;28;20397;-74
2023/10/16 00:57:47;;;;;;;2.10;0.90;;;;;;;;;;5053094;28;20394;-73
2023/10/16 01:00:13;;;;;;;2.00;1.15;;;;;;;;;;5053005;28;20039;-74
2023/10/16 01:02:40;;;;;;;1.38;0.63;;;;;;;;;;5051892;28;20029;-74
2023/10/16 01:05:08;;;;;;;0.88;0.70;;;;;;;;;;5052969;28;20029;-74
2023/10/16 01:07:36;;;;;;;1.05;0.75;;;;;;;;;;5052849;28;20025;-74
2023/10/16 01:10:10;;;;;;;4.50;0.80;;;;;;;;;;5052932;28;20035;-74
2023/10/16 01:12:37;;;;;;;3.40;0.90;;;;;;;;;;5052760;28;20020;-73
2023/10/16 01:15:07;;;;;;;2.33;1.00;;;;;;;;;;5052744;28;20033;-74
2023/10/16 01:17:35;;;;;;;2.47;0.90;;;;;;;;;;5052733;28;20482;-74
2023/10/16 01:20:01;;;;;;;1.52;0.60;;;;;;;;;;5052551;28;20043;-73
2023/10/16 01:22:29;;;;;;;2.35;0.82;;;;;;;;;;5052762;28;20033;-73
2023/10/16 01:24:59;;;;;;;1.85;0.75;;;;;;;;;;5052664;28;20029;-74
2023/10/16 01:27:29;;;;;;;2.23;0.97;;;;;;;;;;5051573;28;20033;-74
2023/10/16 01:30:02;;;;;;;3.75;0.80;;;;;;;;;;5052674;28;20017;-73
2023/10/16 01:32:29;;;;;;;2.30;0.80;;;;;;;;;;5052559;28;20033;-73
2023/10/16 01:34:56;;;;;;;3.55;1.00;;;;;;;;;;5052184;28;20047;-74
2023/10/16 01:37:23;;;;;;;3.03;1.00;;;;;;;;;;5052890;28;20025;-73
2023/10/16 01:39:49;;;;;;;1.98;1.00;;;;;;;;;;5052704;28;20029;-73
2023/10/16 01:42:16;;;;;;;2.58;0.82;;;;;;;;;;5051471;28;20029;-73
2023/10/16 01:44:46;;;;;;;2.05;0.90;;;;;;;;;;5052868;28;20047;-74
2023/10/16 01:47:15;;;;;;;2.30;0.85;;;;;;;;;;5052691;28;20028;-73
2023/10/16 01:49:42;;;;;;;3.05;0.85;;;;;;;;;;5052236;28;20017;-73
2023/10/16 01:52:12;;;;;;;3.03;1.05;;;;;;;;;;5052369;28;20039;-74
2023/10/16 01:54:40;;;;;;;4.47;1.13;;;;;;;;;;5052348;28;20048;-73
2023/10/16 01:57:13;;;;;;;3.05;0.82;;;;;;;;;;5055123;28;20489;-73
2023/10/16 01:59:41;;;;;;;2.47;0.77;;;;;;;;;;5056487;28;20501;-73
2023/10/16 02:02:09;;;;;;;2.33;0.95;;;;;;;;;;5055342;28;20562;-73
2023/10/16 02:04:38;;;;;;;1.88;0.75;;;;;;;;;;5056277;28;20021;-73
2023/10/16 02:07:06;;;;;;;0.60;0.60;;;;;;;;;;5056576;28;20082;-73
2023/10/16 02:09:36;;;;;;;3.95;0.70;;;;;;;;;;5056127;28;20491;-74
2023/10/16 02:12:05;;;;;;;2.65;0.80;;;;;;;;;;5056535;28;20031;-73
2023/10/16 02:14:37;;;;;;;4.32;1.20;;;;;;;;;;5056043;28;20048;-73
2023/10/16 02:17:03;;;;;;;1.48;0.75;;;;;;;;;;5056720;28;20023;-73
2023/10/16 02:19:30;;;;;;;2.08;0.77;;;;;;;;;;5055750;28;20025;-73
2023/10/16 02:21:56;;;;;;;1.95;0.90;;;;;;;;;;5055908;28;20414;-73
2023/10/16 02:24:24;;;;;;;2.20;1.02;;;;;;;;;;5055960;28;20027;-74
2023/10/16 02:26:56;;;;;;;3.33;0.98;;;;;;;;;;5054423;28;20028;-73
2023/10/16 02:29:23;;;;;;;2.30;1.17;;;;;;;;;;5056083;28;20036;-74
2023/10/16 02:31:50;;;;;;;3.13;1.02;;;;;;;;;;5055956;28;20037;-73
2023/10/16 02:34:23;;;;;;;2.30;0.95;;;;;;;;;;5055553;28;20029;-73
2023/10/16 02:36:51;;;;;;;2.08;0.90;;;;;;;;;;5055792;28;20410;-74
2023/10/16 02:39:37;;;;;;;1.90;0.68;;;;;;;;;;5055673;28;20031;-74
2023/10/16 02:42:08;;;;;;;2.05;1.00;;;;;;;;;;5055637;28;20471;-73
2023/10/16 02:44:45;;;;;;;3.45;0.90;;;;;;;;;;5055819;28;20021;-73
2023/10/16 02:47:21;;;;;;;3.90;0.90;;;;;;;;;;5055118;28;20490;-74
2023/10/16 02:49:48;;;;;;;2.47;0.95;;;;;;;;;;5055785;28;20017;-74
2023/10/16 02:52:17;;;;;;;4.35;1.05;;;;;;;;;;5055368;28;20025;-73
2023/10/16 02:54:46;;;;;;;1.73;0.85;;;;;;;;;;5055561;28;20041;-73
2023/10/16 02:57:14;;;;;;;1.10;0.73;;;;;;;;;;5055367;28;20044;-74
2023/10/16 02:59:43;;;;;;;3.78;0.90;;;;;;;;;;5054079;28;20029;-73
2023/10/16 03:02:23;;;;;;;2.55;0.80;;;;;;;;;;5054984;28;20029;-73
2023/10/16 03:04:54;;;;;;;2.70;1.20;;;;;;;;;;5055118;28;20051;-74
2023/10/16 03:07:20;;;;;;;;;;;;;;;;;;5055467;28;20027;-73
2023/10/16 03:09:49;;;;;;;3.63;1.00;;;;;;;;;;5055055;28;19904;-73
2023/10/16 03:12:19;;;;;;;3.58;1.15;;;;;;;;;;5055080;28;20028;-73
2023/10/16 03:14:46;;;;;;;1.45;0.60;;;;;;;;;;5054959;28;20037;-73
2023/10/16 03:17:25;;;;;;;2.22;0.90;;;;;;;;;;5054824;28;20021;-73
2023/10/16 03:19:55;;;;;;;1.17;0.65;;;;;;;;;;5055071;28;20051;-74
2023/10/16 03:22:21;;;;;;;2.88;0.77;;;;;;;;;;5055161;28;20017;-73
2023/10/16 03:24:48;;;;;;;1.77;0.90;;;;;;;;;;5054912;28;20382;-73
2023/10/16 03:27:28;;;;;;;1.13;0.80;;;;;;;;;;5054795;28;20031;-74
2023/10/16 03:29:56;;;;;;;2.15;0.80;;;;;;;;;;5054670;28;20021;-73
2023/10/16 03:32:28;;;;;;;3.17;1.00;;;;;;;;;;5054883;28;20037;-73
2023/10/16 03:34:57;;;;;;;3.30;0.82;;;;;;;;;;5054574;28;20383;-73
2023/10/16 03:37:24;;;;;;;1.95;0.90;;;;;;;;;;5054667;28;20013;-73
2023/10/16 03:39:56;;;;;;;2.17;0.88;;;;;;;;;;5054940;28;20082;-74
2023/10/16 03:42:23;;;;;;;1.88;0.80;;;;;;;;;;5054494;28;20024;-73
2023/10/16 03:44:49;;;;;;;2.38;0.80;;;;;;;;;;5054114;28;20035;-74
2023/10/16 03:47:15;;;;;;;4.18;0.93;;;;;;;;;;5054597;28;20036;-73
2023/10/16 03:49:42;;;;;;;3.65;0.90;;;;;;;;;;5054380;28;20029;-73
2023/10/16 03:52:08;;;;;;;2.90;0.80;;;;;;;;;;5054265;28;20485;-74
2023/10/16 03:54:35;;;;;;;4.13;1.00;;;;;;;;;;5054265;28;20477;-73
2023/10/16 03:57:09;;;;;;;1.83;1.02;;;;;;;;;;5054208;28;20043;-73
2023/10/16 03:59:38;;;;;;;2.78;1.08;;;;;;;;;;5054029;28;20039;-73
2023/10/16 04:02:05;;;;;;;4.63;1.10;;;;;;;;;;5054158;28;20025;-74
2023/10/16 04:04:32;;;;;;;1.75;0.85;;;;;;;;;;5054427;28;20035;-73
2023/10/16 04:06:58;;;;;;;1.20;0.80;;;;;;;;;;5054090;28;20025;-74
2023/10/16 04:09:33;;;;;;;3.33;1.10;;;;;;;;;;5053955;28;20043;-73
2023/10/16 04:12:02;;;;;;;2.72;0.60;;;;;;;;;;5054160;28;20047;-73
2023/10/16 04:14:54;;;;;;;3.20;1.08;;;;;;;;;;5053593;28;20032;-73
2023/10/16 04:17:15;;;;;;;5.07;1.00;;;;;;;;;;5053644;28;20490;-73
2023/10/16 04:19:59;;;;;;;2.20;1.00;;;;;;;;;;5053735;28;20029;-74
2023/10/16 04:22:27;;;;;;;1.77;0.80;;;;;;;;;;5053640;28;20031;-73
2023/10/16 04:24:59;;;;;;;1.55;0.77;;;;;;;;;;5053761;28;20486;-74
2023/10/16 04:27:29;;;;;;;3.03;1.02;;;;;;;;;;5053319;28;20397;-73
2023/10/16 04:43:37;;;;;;;2.10;0.85;;;;;;;;;;5050777;28;20032;-73
2023/10/16 04:49:04;;;;;;;1.60;0.80;;;;;;;;;;5031162;28;19905;-73
2023/10/16 04:51:52;;;;;;;2.40;0.77;;;;;;;;;;5031479;28;20044;-74
2023/10/16 04:54:37;;;;;;;4.10;0.82;;;;;;;;;;5031552;28;20045;-73
2023/10/16 05:02:29;;;;;;;2.45;0.95;;;;;;;;;;5031226;28;20529;-73
2023/10/16 05:08:30;;;;;;;2.38;0.73;;;;;;;;;;5031386;28;20034;-73
2023/10/16 05:11:23;;;;;;;2.00;0.80;;;;;;;;;;5030395;28;20043;-73
2023/10/16 05:13:39;;;;;;;3.42;1.23;;;;;;;;;;5030949;28;20275;-73
2023/10/16 05:19:02;;;;;;;1.00;0.70;;;;;;;;;;4993607;28;20034;-73
2023/10/16 06:16:29;;;;;;;7.03;1.10;;;;;;;;;;5074740;28;20025;-73
2023/10/16 06:18:59;;;;;;;5.35;1.02;;;;;;;;;;5041975;28;20032;-74
2023/10/16 06:21:25;;;;;;;5.15;1.25;;;;;;;;;;5051545;28;20031;-74
2023/10/16 06:23:52;;;;;;;2.15;1.08;;;;;;;;;;5051674;28;20021;-74
2023/10/16 06:26:22;;;;;;;1.40;1.00;;;;;;;;;;5051491;28;20041;-74
2023/10/16 06:28:49;;;;;;;9.40;1.70;;;;;;;;;;5050996;28;20025;-74
2023/10/16 06:31:24;;;;;;;8.95;1.13;;;;;;;;;;5051683;28;20029;-73
2023/10/16 06:33:56;;;;;;;6.00;1.23;;;;;;;;;;5050972;28;20021;-73
2023/10/16 06:36:23;;;;;;;4.72;1.25;;;;;;;;;;5029715;28;20040;-73
2023/10/16 06:38:53;;;;;;;3.65;0.95;;;;;;;;;;5029593;28;20021;-73
2023/10/16 06:41:20;;;;;;;2.22;1.30;;;;;;;;;;5037153;28;20028;-74
2023/10/16 06:43:47;;;;;;;8.98;1.50;;;;;;;;;;5050024;28;20025;-74
2023/10/16 06:46:26;;;;;;;2.53;1.17;;;;;;;;;;5053977;28;20033;-74
2023/10/16 06:48:53;;;;;;;3.80;1.25;;;;;;;;;;5053341;28;20027;-74
2023/10/16 06:51:26;;;;;;;4.88;1.20;;;;;;;;;;5053019;28;20369;-74
2023/10/16 06:53:56;;;;;;;7.22;1.23;;;;;;;;;;5054006;28;20375;-74
2023/10/16 06:56:31;;;;;;;6.38;1.42;;;;;;;;;;5054262;28;20040;-74
2023/10/16 06:58:57;;;;;;;4.22;1.02;;;;;;;;;;5053086;28;20044;-74
2023/10/16 07:01:25;;;;;;;3.50;1.35;;;;;;;;;;5037056;28;20014;-73
2023/10/16 07:03:55;;;;;;;2.75;1.50;;;;;;;;;;5040916;28;20021;-74
2023/10/16 07:06:32;;;;;;;4.50;1.50;;;;;;;;;;5052687;28;20025;-74
2023/10/16 07:09:00;;;;;;;5.85;1.55;;;;;;;;;;5052393;28;20393;-74
2023/10/16 07:11:27;;;;;;;4.47;1.55;;;;;;;;;;5052330;28;20029;-74
2023/10/16 07:13:54;;;;;;;5.35;1.35;;;;;;;;;;5051520;28;20509;-74
2023/10/16 07:16:20;;;;;;;7.78;1.30;;;;;;;;;;5045409;28;20029;-74
2023/10/16 07:18:53;;;;;;;5.95;1.48;;;;;;;;;;5052848;28;20037;-74
2023/10/16 07:21:24;;;;;;;7.68;1.60;;;;;;;;;;5053840;28;20035;-73
2023/10/16 07:23:53;;;;;;;9.27;1.50;;;;;;;;;;5051885;28;20031;-73
2023/10/16 07:26:24;;;;;;;4.15;1.20;;;;;;;;;;5053487;28;20029;-74
2023/10/16 07:28:51;;;;;;;10.95;1.48;;;;;;;;;;5051223;28;20021;-74
2023/10/16 07:31:17;;;;;;;8.95;1.55;;;;;;;;;;5052319;28;20037;-73
2023/10/16 07:33:59;;;;;;;5.05;1.05;;;;;;;;;;5052470;28;20045;-74
2023/10/16 07:36:26;;;;;;;8.45;1.20;;;;;;;;;;5033077;28;20026;-73
2023/10/16 07:38:54;;;;;;;11.50;1.48;;;;;;;;;;5033706;28;20034;-74
2023/10/16 07:41:23;;;;;;;3.65;1.17;;;;;;;;;;5043566;28;20029;-74
2023/10/16 07:43:56;;;;;;;6.15;1.10;;;;;;;;;;5052627;28;20058;-74
2023/10/16 07:46:31;;;;;;;9.27;1.35;;;;;;;;;;5047078;28;20039;-74
2023/10/16 07:49:04;;;;;;;15.80;1.77;;;;;;;;;;5045503;28;20097;-73
2023/10/16 07:51:30;;;;;;;13.02;1.17;;;;;;;;;;5053052;28;20021;-73
2023/10/16 07:53:56;;;;;;;6.57;1.20;;;;;;;;;;5050729;28;20439;-73
2023/10/16 07:58:54;;;;;;;12.20;1.30;;;;;;;;;;5051473;28;20039;-74
2023/10/16 08:01:36;;;;;;;;;;;;;;;;;;5055675;28;20029;-72
2023/10/16 08:04:06;;;;;;;8.82;1.42;;;;;;;;;;5048370;28;19913;-73
2023/10/16 08:06:33;;;;;;;9.07;1.75;;;;;;;;;;5051440;28;20423;-74
2023/10/16 08:11:44;;;;;;;8.77;1.20;;;;;;;;;;5053090;28;20036;-74
2023/10/16 08:14:13;;;;;;;5.28;1.42;;;;;;;;;;5041764;28;20406;-74
2023/10/16 08:16:39;;;;;;;3.40;1.20;;;;;;;;;;5047461;28;20024;-74
2023/10/16 08:19:15;;;;;;;7.78;1.35;;;;;;;;;;5052693;28;20036;-74
2023/10/16 08:21:45;;;;;;;4.47;1.10;;;;;;;;;;5052466;28;20031;-74
2023/10/16 08:24:13;;;;;;;3.22;1.08;;;;;;;;;;5052695;28;20543;-74
2023/10/16 08:26:43;;;;;;;2.85;0.95;;;;;;;;;;5049461;28;20023;-74
2023/10/16 08:29:18;;;;;;;10.45;1.20;;;;;;;;;;5052626;28;20032;-74
2023/10/16 08:31:45;;;;;;;9.57;1.10;;;;;;;;;;5052012;28;20410;-74
2023/10/16 08:34:19;;;;;;;4.50;1.05;;;;;;;;;;5052637;28;20411;-74
2023/10/16 08:36:52;;;;;;;6.15;1.23;;;;;;;;;;5051312;28;20024;-74
2023/10/16 08:39:19;;;;;;;5.97;1.20;;;;;;;;;;5049407;28;20035;-74
2023/10/16 08:41:53;;;;;;;9.82;1.40;;;;;;;;;;5054319;28;20031;-74
2023/10/16 08:44:24;;;;;;;6.82;1.25;;;;;;;;;;5050682;28;20039;-75
2023/10/16 08:49:24;;;;;;;4.97;1.05;;;;;;;;;;5048263;28;20521;-75
2023/10/16 08:51:52;;;;;;;5.50;1.00;;;;;;;;;;5051774;28;20025;-75
2023/10/16 08:57:08;;;;;;;5.45;0.98;;;;;;;;;;5051778;28;20510;-74
2023/10/16 08:59:35;;;;;;;7.55;1.20;;;;;;;;;;5045938;28;20195;-74
2023/10/16 09:02:02;;;;;;;5.20;0.90;;;;;;;;;;5030837;28;20037;-74
2023/10/16 09:04:28;;;;;;;10.00;1.17;;;;;;;;;;5038564;28;20078;-75
2023/10/16 09:06:57;;;;;;;11.20;1.45;;;;;;;;;;5049439;28;20029;-75
2023/10/16 09:09:25;;;;;;;4.40;1.00;;;;;;;;;;5052183;28;20033;-74
2023/10/16 09:12:03;;;;;;;2.97;1.10;;;;;;;;;;5051953;28;20013;-75
2023/10/16 09:14:29;;;;;;;9.35;1.60;;;;;;;;;;5051548;28;20047;-75
2023/10/16 09:16:59;;;;;;;4.45;1.02;;;;;;;;;;5052165;28;20070;-75
2023/10/16 09:19:33;;;;;;;5.70;1.15;;;;;;;;;;5049379;28;20035;-75
2023/10/16 09:22:00;;;;;;;5.90;0.90;;;;;;;;;;5043689;28;20029;-75
2023/10/16 09:24:28;;;;;;;5.75;1.38;;;;;;;;;;5031829;28;20401;-75
2023/10/16 09:26:54;;;;;;;4.40;1.40;;;;;;;;;;5035429;28;20025;-75
2023/10/16 09:29:25;;;;;;;6.38;1.10;;;;;;;;;;5050423;28;20387;-75
2023/10/16 09:31:51;;;;;;;10.20;1.23;;;;;;;;;;5044334;28;20763;-75
2023/10/16 09:34:25;;;;;;;2.50;0.95;;;;;;;;;;5044775;28;20029;-75
2023/10/16 09:39:46;;;;;;;9.75;1.30;;;;;;;;;;5041571;28;20033;-75
2023/10/16 09:42:13;;;;;;;3.45;1.10;;;;;;;;;;5043292;28;20036;-75
2023/10/16 09:44:56;;;;;;;4.30;1.20;;;;;;;;;;5039540;28;20413;-75
2023/10/16 09:47:25;;;;;;;11.13;1.52;;;;;;;;;;5049170;28;20548;-74
2023/10/16 09:49:56;;;;;;;5.40;0.98;;;;;;;;;;5048117;28;20405;-75
2023/10/16 09:52:22;;;;;;;4.97;1.30;;;;;;;;;;5050820;28;20029;-75
2023/10/16 09:54:49;;;;;;;6.55;1.27;;;;;;;;;;5049680;28;20033;-76
2023/10/16 09:57:22;;;;;;;5.47;1.20;;;;;;;;;;5049561;28;20053;-75
2023/10/16 09:59:54;;;;;;;8.68;1.00;;;;;;;;;;5045474;28;20082;-74
2023/10/16 10:02:25;;;;;;;4.13;1.10;;;;;;;;;;5049639;28;20025;-74
2023/10/16 10:04:54;;;;;;;17.65;1.35;;;;;;;;;;5041176;28;20033;-76
2023/10/16 10:07:34;;;;;;;3.58;1.20;;;;;;;;;;5051710;28;20021;-76
2023/10/16 10:10:39;;;;;;;6.43;1.40;;;;;;;;;;5051316;28;20021;-75
2023/10/16 10:12:49;;;;;;;4.60;1.25;;;;;;;;;;5051366;28;20492;-76
2023/10/16 10:15:26;;;;;;;8.45;1.40;;;;;;;;;;5051118;28;20047;-76
2023/10/16 10:17:55;;;;;;;6.00;1.23;;;;;;;;;;5051875;28;20039;-75
2023/10/16 10:20:39;;;;;;;4.03;1.38;;;;;;;;;;5055298;28;20486;-75
2023/10/16 10:23:08;;;;;;;6.20;1.40;;;;;;;;;;5054917;28;20029;-76
2023/10/16 10:25:37;;;;;;;6.55;1.83;;;;;;;;;;5054899;28;20025;-76
2023/10/16 10:28:22;;;;;;;6.72;1.77;;;;;;;;;;5054963;28;20378;-75
2023/10/16 10:30:49;;;;;;;5.03;1.60;;;;;;;;;;5055431;28;20031;-76
2023/10/16 10:33:38;;;;;;;7.55;1.40;;;;;;;;;;5055597;28;20025;-76
2023/10/16 10:36:22;;;;;;;9.65;1.55;;;;;;;;;;5035416;28;20038;-76
2023/10/16 10:38:49;;;;;;;3.65;1.17;;;;;;;;;;5034858;28;20470;-75
2023/10/16 10:41:16;;;;;;;6.57;1.33;;;;;;;;;;5034654;28;20025;-76
2023/10/16 10:43:46;;;;;;;10.95;1.52;;;;;;;;;;5033416;28;20029;-76
2023/10/16 10:46:14;;;;;;;6.35;1.30;;;;;;;;;;5034478;28;20017;-76
2023/10/16 10:48:43;;;;;;;6.28;1.48;;;;;;;;;;5034694;28;20374;-76
2023/10/16 10:51:14;;;;;;;7.18;1.50;;;;;;;;;;5034420;28;20037;-76
2023/10/16 10:53:53;;;;;;;11.50;1.50;;;;;;;;;;5034394;28;20079;-76
2023/10/16 10:56:22;;;;;;;7.57;1.63;;;;;;;;;;5034280;28;20080;-76
2023/10/16 10:58:49;;;;;;;8.45;1.50;;;;;;;;;;5033708;28;20033;-76
2023/10/16 11:01:16;;;;;;;8.15;1.70;;;;;;;;;;5034110;28;20017;-76
2023/10/16 11:03:46;;;;;;;8.35;1.77;;;;;;;;;;5032181;28;20396;-77
2023/10/16 11:06:16;;;;;;;3.63;1.52;;;;;;;;;;5040940;28;20067;-77
2023/10/16 11:08:44;;;;;;;12.80;1.90;;;;;;;;;;5054259;28;20513;-76
2023/10/16 11:11:10;;;;;;;7.22;1.85;;;;;;;;;;5053885;28;20035;-77
2023/10/16 11:13:49;;;;;;;4.10;1.83;;;;;;;;;;5053862;28;20025;-78
2023/10/16 11:16:16;;;;;;;10.65;1.88;;;;;;;;;;5054093;28;20099;-78
2023/10/16 11:18:59;;;;;;;7.40;1.75;;;;;;;;;;5053856;28;20488;-78
2023/10/16 11:21:25;;;;;;;8.82;2.03;;;;;;;;;;5053932;28;20033;-78
2023/10/16 11:23:55;;;;;;;7.25;2.17;;;;;;;;;;5053898;28;20021;-78
2023/10/16 11:26:28;;;;;;;14.80;2.00;;;;;;;;;;5052644;28;20031;-78
2023/10/16 11:28:54;;;;;;;6.75;2.13;;;;;;;;;;5053367;28;20029;-78
2023/10/16 11:31:21;;;;;;;6.82;1.67;;;;;;;;;;5051689;28;20031;-78
2023/10/16 11:34:00;;;;;;;6.90;1.98;;;;;;;;;;5053324;28;20033;-78
2023/10/16 11:36:36;;;;;;;11.98;2.30;;;;;;;;;;5042638;28;20041;-78
2023/10/16 11:39:03;;;;;;;8.88;2.42;;;;;;;;;;5034817;28;20030;-77
2023/10/16 11:41:32;;;;;;;7.60;1.75;;;;;;;;;;5033295;28;20521;-77
2023/10/16 11:44:01;;;;;;;6.88;2.25;;;;;;;;;;5038740;28;20027;-76
2023/10/16 11:46:29;;;;;;;9.90;2.10;;;;;;;;;;5053011;28;20017;-76
2023/10/16 11:51:48;;;;;;;12.18;2.10;;;;;;;;;;5033122;28;20034;-77
2023/10/16 11:54:23;;;;;;;7.43;1.85;;;;;;;;;;5042218;28;20464;-76
2023/10/16 11:56:56;;;;;;;12.55;2.10;;;;;;;;;;5052872;28;20041;-76
2023/10/16 11:59:24;;;;;;;5.05;1.55;;;;;;;;;;5052619;28;20021;-77
2023/10/16 12:01:59;;;;;;;7.00;1.77;;;;;;;;;;5052578;28;20535;-76
2023/10/16 12:04:26;;;;;;;6.78;2.10;;;;;;;;;;5050699;28;20017;-77
2023/10/16 12:06:53;;;;;;;9.68;2.13;;;;;;;;;;5053046;28;20035;-77
2023/10/16 12:09:20;;;;;;;13.88;2.67;;;;;;;;;;5050991;28;20031;-77
2023/10/16 12:11:47;;;;;;;7.68;2.33;;;;;;;;;;5052344;28;20033;-77
2023/10/16 12:14:13;;;;;;;8.75;1.88;;;;;;;;;;5052212;28;20378;-77
2023/10/16 12:16:41;;;;;;;8.15;1.80;;;;;;;;;;5052637;28;20017;-77
2023/10/16 12:19:09;;;;;;;9.85;1.77;;;;;;;;;;5051887;28;20090;-76
2023/10/16 12:21:35;;;;;;;7.70;1.92;;;;;;;;;;5050969;28;20473;-77
2023/10/16 12:24:02;;;;;;;10.90;2.30;;;;;;;;;;5042646;28;20017;-75
2023/10/16 12:26:28;;;;;;;10.13;2.00;;;;;;;;;;5050177;28;20025;-76
2023/10/16 12:28:55;;;;;;;7.65;2.05;;;;;;;;;;5049490;28;20395;-76
2023/10/16 12:31:21;;;;;;;9.27;2.28;;;;;;;;;;5051938;28;20025;-77
2023/10/16 12:33:47;;;;;;;17.42;2.10;;;;;;;;;;5050996;28;20043;-80
2023/10/16 12:36:14;;;;;;;13.70;1.60;;;;;;;;;;5038152;28;20038;-75
2023/10/16 12:38:40;;;;;;;12.75;2.10;;;;;;;;;;5043414;28;20027;-76
2023/10/16 12:41:08;;;;;;;8.63;1.98;;;;;;;;;;5047969;28;20037;-76
2023/10/16 12:43:36;;;;;;;14.55;2.38;;;;;;;;;;5051012;28;20070;-76
2023/10/16 12:46:03;;;;;;;10.73;1.90;;;;;;;;;;5083126;28;20029;-76
2023/10/16 12:48:30;;;;;;;14.93;1.92;;;;;;;;;;5046994;28;20039;-76
2023/10/16 12:51:07;;;;;;;9.32;1.77;;;;;;;;;;5049262;28;20028;-76
2023/10/16 12:53:33;;;;;;;12.77;1.70;;;;;;;;;;5043814;28;20025;-77
2023/10/16 12:55:59;;;;;;;12.43;2.25;;;;;;;;;;5050587;28;20029;-76
2023/10/16 12:58:27;;;;;;;5.00;1.50;;;;;;;;;;5047852;28;20044;-77
2023/10/16 13:00:57;;;;;;;7.18;1.88;;;;;;;;;;5051557;28;20021;-76
2023/10/16 13:03:24;;;;;;;10.02;1.85;;;;;;;;;;5050588;28;20027;-75
2023/10/16 13:05:52;;;;;;;6.32;1.90;;;;;;;;;;5047653;28;20031;-75
2023/10/16 13:08:20;;;;;;;9.57;1.80;;;;;;;;;;5052532;28;20033;-76
2023/10/16 13:10:48;;;;;;;15.00;2.30;;;;;;;;;;5049335;28;20079;-76
2023/10/16 13:13:21;;;;;;;8.40;2.00;;;;;;;;;;5053435;28;20043;-76
2023/10/16 13:15:54;;;;;;;8.13;1.65;;;;;;;;;;5038067;28;20501;-76
2023/10/16 13:18:30;;;;;;;8.05;1.63;;;;;;;;;;5048604;28;20021;-77
2023/10/16 13:21:15;;;;;;;9.90;1.77;;;;;;;;;;5049808;28;20025;-75
2023/10/16 13:23:42;;;;;;;10.55;2.40;;;;;;;;;;5048090;28;20055;-77
2023/10/16 13:26:08;;;;;;;10.32;1.92;;;;;;;;;;5042353;28;20024;-77
2023/10/16 13:28:41;;;;;;;13.00;2.10;;;;;;;;;;5049658;28;20033;-77
2023/10/16 13:31:08;;;;;;;9.13;2.17;;;;;;;;;;5049799;28;20106;-77
2023/10/16 13:33:40;;;;;;;6.80;1.52;;;;;;;;;;5050451;28;20021;-76
2023/10/16 13:36:11;;;;;;;10.52;2.05;;;;;;;;;;5037676;28;20450;-76
2023/10/16 13:38:37;;;;;;;;;;;;;;;;;;5046112;28;20456;-77
2023/10/16 13:41:17;;;;;;;9.85;2.05;;;;;;;;;;5048882;28;21411;-77
2023/10/16 13:43:44;;;;;;;11.55;2.00;;;;;;;;;;5038589;28;20021;-76
2023/10/16 13:46:13;;;;;;;14.27;1.90;;;;;;;;;;5048377;28;20051;-76
2023/10/16 13:48:45;;;;;;;10.82;1.90;;;;;;;;;;5050646;28;20023;-76
2023/10/16 13:51:13;;;;;;;6.82;1.98;;;;;;;;;;5049047;28;20021;-76
2023/10/16 13:53:42;;;;;;;10.68;2.20;;;;;;;;;;5038566;28;20024;-77
2023/10/16 13:56:08;;;;;;;6.88;1.67;;;;;;;;;;5053990;28;20040;-77
2023/10/16 13:58:35;;;;;;;6.18;1.98;;;;;;;;;;5054793;28;20074;-77
2023/10/16 14:01:02;;;;;;;10.52;1.98;;;;;;;;;;5054528;28;20029;-76
2023/10/16 14:03:28;;;;;;;10.57;1.83;;;;;;;;;;5051828;28;20473;-76
2023/10/16 14:05:55;;;;;;;9.88;1.67;;;;;;;;;;5049388;28;20489;-75
2023/10/16 14:08:30;;;;;;;6.68;1.58;;;;;;;;;;5054944;28;20017;-76
2023/10/16 14:10:57;;;;;;;9.00;1.83;;;;;;;;;;5058429;28;20039;-76
2023/10/16 14:13:27;;;;;;;11.63;1.77;;;;;;;;;;5054596;28;20029;-76
2023/10/16 14:15:58;;;;;;;10.73;1.85;;;;;;;;;;5041501;28;20043;-77
2023/10/16 14:18:25;;;;;;;11.38;1.77;;;;;;;;;;5049265;28;20039;-76
2023/10/16 14:20:51;;;;;;;7.90;1.63;;;;;;;;;;5054435;28;20029;-76
2023/10/16 14:23:28;;;;;;;13.05;2.25;;;;;;;;;;5034970;28;20024;-77
2023/10/16 14:25:58;;;;;;;13.80;2.22;;;;;;;;;;5047238;28;20035;-76
2023/10/16 14:28:29;;;;;;;9.48;1.80;;;;;;;;;;5053053;28;20029;-76
2023/10/16 14:30:56;;;;;;;6.10;1.85;;;;;;;;;;5044371;28;20043;-76
2023/10/16 14:33:28;;;;;;;13.30;2.30;;;;;;;;;;5054572;28;20037;-77
2023/10/16 14:35:56;;;;;;;12.15;2.10;;;;;;;;;;5048822;28;20033;-77
2023/10/16 14:38:23;;;;;;;13.73;1.92;;;;;;;;;;5053465;28;20024;-77
2023/10/16 14:40:49;;;;;;;13.10;2.60;;;;;;;;;;5049684;28;20025;-77
2023/10/16 14:43:17;;;;;;;16.02;2.40;;;;;;;;;;5052082;28;20489;-76
2023/10/16 14:45:47;;;;;;;17.30;2.47;;;;;;;;;;5054577;28;20039;-77
2023/10/16 14:48:15;;;;;;;12.38;2.03;;;;;;;;;;5054215;28;20489;-76
2023/10/16 14:50:41;;;;;;;11.07;1.88;;;;;;;;;;5054099;28;20017;-77
2023/10/16 14:53:09;;;;;;;12.48;2.03;;;;;;;;;;5053767;28;20035;-76
2023/10/16 14:55:36;;;;;;;9.60;2.13;;;;;;;;;;5050794;28;20037;-76
2023/10/16 14:58:02;;;;;;;10.70;2.00;;;;;;;;;;5053150;28;20041;-77
2023/10/16 15:00:32;;;;;;;9.30;1.85;;;;;;;;;;5037971;28;20041;-77
2023/10/16 15:03:00;;;;;;;14.90;2.67;;;;;;;;;;5051584;28;20622;-77
2023/10/16 15:05:26;;;;;;;6.35;1.83;;;;;;;;;;5054046;28;20382;-77
2023/10/16 15:07:52;;;;;;;11.45;2.17;;;;;;;;;;5046768;28;20022;-77
2023/10/16 15:10:19;;;;;;;10.27;2.10;;;;;;;;;;5048362;28;20376;-77
2023/10/16 15:12:45;;;;;;;11.00;2.22;;;;;;;;;;5045921;28;20043;-77
2023/10/16 15:15:12;;;;;;;12.13;2.22;;;;;;;;;;5039086;28;20053;-77
2023/10/16 15:17:39;;;;;;;10.70;2.30;;;;;;;;;;5036095;28;20025;-77
2023/10/16 15:20:12;;;;;;;8.27;1.95;;;;;;;;;;5054179;28;20027;-77
2023/10/16 15:22:42;;;;;;;11.50;1.98;;;;;;;;;;5047221;28;20481;-77
2023/10/16 15:25:16;;;;;;;12.13;1.98;;;;;;;;;;5033768;28;20033;-77
2023/10/16 15:27:43;;;;;;;9.75;1.63;;;;;;;;;;5037763;28;20021;-77
2023/10/16 15:30:10;;;;;;;10.60;2.15;;;;;;;;;;5053410;28;20033;-77
2023/10/16 15:32:39;;;;;;;18.25;2.40;;;;;;;;;;5053648;28;20039;-77
2023/10/16 15:35:07;;;;;;;6.65;1.52;;;;;;;;;;5052854;28;20477;-77
2023/10/16 15:37:38;;;;;;;7.82;1.80;;;;;;;;;;5053399;28;20523;-77
2023/10/16 15:40:04;;;;;;;;;;;;;;;;;;5054726;28;20035;-77
2023/10/16 15:42:30;;;;;;;11.50;2.22;;;;;;;;;;5053936;28;19930;-77
2023/10/16 15:44:59;;;;;;;10.27;2.35;;;;;;;;;;5053996;28;20029;-77
2023/10/16 15:47:26;;;;;;;7.13;2.17;;;;;;;;;;5054103;28;20481;-77
2023/10/16 15:49:54;;;;;;;8.75;2.05;;;;;;;;;;5053959;28;20035;-76
2023/10/16 15:52:21;;;;;;;12.43;1.90;;;;;;;;;;5053840;28;20021;-76
2023/10/16 15:54:51;;;;;;;12.32;2.15;;;;;;;;;;5053552;28;20039;-76
2023/10/16 15:57:17;;;;;;;11.98;2.00;;;;;;;;;;5054119;28;20049;-76
2023/10/16 15:59:43;;;;;;;16.38;2.40;;;;;;;;;;5053584;28;20396;-76
2023/10/16 16:02:16;;;;;;;8.27;2.22;;;;;;;;;;5053524;28;20025;-76
2023/10/16 16:04:49;;;;;;;10.52;2.10;;;;;;;;;;5053399;28;20033;-76
2023/10/16 16:07:16;;;;;;;10.95;2.10;;;;;;;;;;5054153;28;20031;-76
2023/10/16 16:09:42;;;;;;;18.77;2.53;;;;;;;;;;5054238;28;20036;-76
2023/10/16 16:12:10;;;;;;;14.70;2.70;;;;;;;;;;5054009;28;20019;-81
2023/10/16 16:14:42;;;;;;;10.80;2.38;;;;;;;;;;5053073;28;20396;-72
2023/10/16 16:17:11;;;;;;;15.63;2.10;;;;;;;;;;5054173;28;20021;-71
2023/10/16 16:19:39;;;;;;;14.73;2.67;;;;;;;;;;5053951;28;20033;-72
2023/10/16 16:22:10;;;;;;;11.57;2.47;;;;;;;;;;5053697;28;20025;-71
2023/10/16 16:24:40;;;;;;;16.85;2.53;;;;;;;;;;5054057;28;20027;-72
2023/10/16 16:27:09;;;;;;;10.50;2.25;;;;;;;;;;5052706;28;20025;-71
2023/10/16 16:29:40;;;;;;;12.40;2.55;;;;;;;;;;5053551;28;20021;-71
2023/10/16 16:32:06;;;;;;;;;;;;;;;;;;5054326;28;20037;-71
2023/10/16 16:34:33;;;;;;;12.98;2.70;;;;;;;;;;5053297;28;19913;-71